createdAt,value
2019-02-21T00:01:37.237Z,16.05
2019-02-21T00:04:06.931Z,16.17
2019-02-21T00:06:36.528Z,15.40
2019-02-21T00:09:08.098Z,15.53
2019-02-21T00:11:37.452Z,15.20
2019-02-21T00:14:06.759Z,15.28
2019-02-21T00:16:36.146Z,15.70
2019-02-21T00:19:05.803Z,15.35
2019-02-21T00:21:35.399Z,15.93
2019-02-21T00:24:04.762Z,15.65
2019-02-21T00:26:34.094Z,16.65
2019-02-21T00:29:03.461Z,15.70
2019-02-21T00:31:33.140Z,15.58
2019-02-21T00:34:02.442Z,16.62
2019-02-21T00:36:31.753Z,15.65
2019-02-21T00:39:01.400Z,16.57
2019-02-21T00:41:31.030Z,15.90
2019-02-21T00:44:00.630Z,16.42
2019-02-21T00:46:30.006Z,15.32
2019-02-21T00:48:59.295Z,15.63
2019-02-21T00:51:28.940Z,15.85
2019-02-21T00:53:58.296Z,15.95
2019-02-21T00:56:27.856Z,15.98
2019-02-21T00:59:00.749Z,15.90
2019-02-21T01:01:30.137Z,16.97
2019-02-21T01:03:59.519Z,16.05
2019-02-21T01:06:29.158Z,16.80
2019-02-21T01:08:58.553Z,16.37
2019-02-21T01:11:27.895Z,16.05
2019-02-21T01:13:57.179Z,16.52
2019-02-21T01:16:26.546Z,16.87
2019-02-21T01:18:55.858Z,15.85
2019-02-21T01:21:25.164Z,16.65
2019-02-21T01:23:54.532Z,15.85
2019-02-21T01:26:23.829Z,15.60
2019-02-21T01:28:53.155Z,16.73
2019-02-21T01:31:22.524Z,16.15
2019-02-21T01:33:51.878Z,15.95
2019-02-21T01:36:21.459Z,16.27
2019-02-21T01:38:50.823Z,16.00
2019-02-21T01:41:20.200Z,15.72
2019-02-21T01:43:49.517Z,15.10
2019-02-21T01:46:18.904Z,16.30
2019-02-21T01:48:48.292Z,15.50
2019-02-21T01:51:17.882Z,15.10
2019-02-21T01:53:47.304Z,15.25
2019-02-21T01:56:16.629Z,14.87
2019-02-21T01:58:45.945Z,14.90
2019-02-21T02:01:15.317Z,14.95
2019-02-21T02:03:44.637Z,14.85
2019-02-21T02:06:14.303Z,14.28
2019-02-21T02:08:43.700Z,14.68
2019-02-21T02:11:13.354Z,15.55
2019-02-21T02:13:42.918Z,14.58
2019-02-21T02:16:12.300Z,14.23
2019-02-21T02:18:41.622Z,14.38
2019-02-21T02:21:11.225Z,14.70
2019-02-21T02:23:40.632Z,15.32
2019-02-21T02:26:09.945Z,15.38
2019-02-21T02:28:39.250Z,15.10
2019-02-21T02:31:21.587Z,15.28
2019-02-21T02:33:41.101Z,14.93
2019-02-21T02:36:10.406Z,14.80
2019-02-21T02:38:40.006Z,14.93
2019-02-21T02:41:09.388Z,14.78
2019-02-21T02:43:38.694Z,14.73
2019-02-21T02:46:08.080Z,14.90
2019-02-21T02:48:37.392Z,14.73
2019-02-21T02:51:06.701Z,14.23
2019-02-21T02:53:36.080Z,14.83
2019-02-21T02:56:05.418Z,14.90
2019-02-21T02:58:34.747Z,14.90
2019-02-21T03:01:04.247Z,15.90
2019-02-21T03:03:36.239Z,15.25
2019-02-21T03:06:05.716Z,14.87
2019-02-21T03:08:35.083Z,14.75
2019-02-21T03:11:04.414Z,15.65
2019-02-21T03:13:33.760Z,15.03
2019-02-21T03:16:03.409Z,15.32
2019-02-21T03:18:32.713Z,15.23
2019-02-21T03:21:02.015Z,14.93
2019-02-21T03:23:31.462Z,15.30
2019-02-21T03:26:00.834Z,15.28
2019-02-21T03:28:30.110Z,15.15
2019-02-21T03:30:59.923Z,15.85
2019-02-21T03:33:29.226Z,14.63
2019-02-21T03:35:58.565Z,15.93
2019-02-21T03:38:27.931Z,15.48
2019-02-21T03:40:57.326Z,15.20
2019-02-21T03:43:26.929Z,15.20
2019-02-21T03:45:56.286Z,16.00
2019-02-21T03:48:25.593Z,15.15
2019-02-21T03:50:54.932Z,14.98
2019-02-21T03:53:24.365Z,15.55
2019-02-21T03:55:54.037Z,15.80
2019-02-21T03:58:23.347Z,16.52
2019-02-21T04:00:52.778Z,17.12
2019-02-21T04:03:22.132Z,16.62
2019-02-21T04:05:51.443Z,16.65
2019-02-21T04:08:20.847Z,16.87
2019-02-21T04:10:50.159Z,17.45
2019-02-21T04:13:19.769Z,17.35
2019-02-21T04:15:49.199Z,17.05
2019-02-21T04:18:18.909Z,17.52
2019-02-21T04:20:48.246Z,18.02
2019-02-21T04:23:17.605Z,17.62
2019-02-21T04:25:46.945Z,17.45
2019-02-21T04:28:16.314Z,18.32
2019-02-21T04:30:45.679Z,17.87
2019-02-21T04:33:14.977Z,17.85
2019-02-21T04:35:44.295Z,18.35
2019-02-21T04:38:14.023Z,18.32
2019-02-21T04:40:43.323Z,18.60
2019-02-21T04:43:15.721Z,18.48
2019-02-21T04:45:45.105Z,19.60
2019-02-21T04:48:14.416Z,20.12
2019-02-21T04:50:43.733Z,19.27
2019-02-21T04:53:13.320Z,19.98
2019-02-21T04:55:42.622Z,20.55
2019-02-21T04:58:11.927Z,20.08
2019-02-21T05:00:41.561Z,19.75
2019-02-21T05:03:10.902Z,20.95
2019-02-21T05:05:40.236Z,19.75
2019-02-21T05:08:09.609Z,20.32
2019-02-21T05:10:38.906Z,21.35
2019-02-21T05:13:08.516Z,21.68
2019-02-21T05:15:37.853Z,20.95
2019-02-21T05:18:07.168Z,21.73
2019-02-21T05:20:36.513Z,21.75
2019-02-21T05:23:05.926Z,23.60
2019-02-21T05:25:35.519Z,21.95
2019-02-21T05:28:23.501Z,22.20
2019-02-21T05:30:56.896Z,23.00
2019-02-21T05:33:36.641Z,22.32
2019-02-21T05:36:07.924Z,21.60
2019-02-21T05:38:39.211Z,22.65
2019-02-21T05:41:13.170Z,22.05
2019-02-21T05:43:44.104Z,22.42
2019-02-21T05:46:15.048Z,21.82
2019-02-21T05:48:48.433Z,21.10
2019-02-21T05:51:22.358Z,22.02
2019-02-21T05:53:56.444Z,22.10
2019-02-21T05:56:30.142Z,21.45
2019-02-21T05:59:01.172Z,22.40
2019-02-21T06:01:44.005Z,21.27
2019-02-21T06:04:27.210Z,22.80
2019-02-21T06:07:14.575Z,22.98
2019-02-21T06:09:48.464Z,22.30
2019-02-21T06:12:19.751Z,22.60
2019-02-21T06:14:53.363Z,22.05
2019-02-21T06:17:27.074Z,23.10
2019-02-21T06:20:04.344Z,24.02
2019-02-21T06:22:35.365Z,24.20
2019-02-21T06:25:06.669Z,23.67
2019-02-21T06:27:38.202Z,24.63
2019-02-21T06:30:28.410Z,24.10
2019-02-21T06:33:05.112Z,23.87
2019-02-21T06:35:28.780Z,22.32
2019-02-21T06:37:58.129Z,23.52
2019-02-21T06:40:27.498Z,22.80
2019-02-21T06:42:56.794Z,23.20
2019-02-21T06:45:26.418Z,23.02
2019-02-21T06:47:56.019Z,23.55
2019-02-21T06:50:27.044Z,23.27
2019-02-21T06:52:56.434Z,23.32
2019-02-21T06:55:26.079Z,22.87
2019-02-21T06:57:55.686Z,23.27
2019-02-21T07:00:25.052Z,22.62
2019-02-21T07:02:54.706Z,23.57
2019-02-21T07:05:24.015Z,23.10
2019-02-21T07:07:53.415Z,23.75
2019-02-21T07:10:22.730Z,24.15
2019-02-21T07:12:52.042Z,24.15
2019-02-21T07:15:21.742Z,22.95
2019-02-21T07:17:51.084Z,22.13
2019-02-21T07:20:20.406Z,22.58
2019-02-21T07:22:50.146Z,23.32
2019-02-21T07:25:23.788Z,21.85
2019-02-21T07:27:53.101Z,23.18
2019-02-21T07:30:23.270Z,22.82
2019-02-21T07:32:52.741Z,22.17
2019-02-21T07:35:22.066Z,22.30
2019-02-21T07:37:51.672Z,21.87
2019-02-21T07:40:20.981Z,21.50
2019-02-21T07:42:50.555Z,22.77
2019-02-21T07:45:19.954Z,21.73
2019-02-21T07:47:49.257Z,22.77
2019-02-21T07:50:18.596Z,22.82
2019-02-21T07:52:48.277Z,23.00
2019-02-21T07:55:17.582Z,22.25
2019-02-21T07:57:46.931Z,21.15
2019-02-21T08:00:16.592Z,20.60
2019-02-21T08:02:46.209Z,22.58
2019-02-21T08:05:15.654Z,21.27
2019-02-21T08:07:45.036Z,21.57
2019-02-21T08:10:14.341Z,21.37
2019-02-21T08:12:44.017Z,22.15
2019-02-21T08:15:14.286Z,21.12
2019-02-21T08:17:43.617Z,22.75
2019-02-21T08:20:13.597Z,23.32
2019-02-21T08:22:43.004Z,21.90
2019-02-21T08:25:12.335Z,22.05
2019-02-21T08:27:42.609Z,23.62
2019-02-21T08:30:16.207Z,21.52
2019-02-21T08:33:03.338Z,22.75
2019-02-21T08:35:33.110Z,21.37
2019-02-21T08:38:02.502Z,22.70
2019-02-21T08:40:31.810Z,22.17
2019-02-21T08:43:03.950Z,21.85
2019-02-21T08:45:32.273Z,23.12
2019-02-21T08:48:01.856Z,23.85
2019-02-21T08:50:31.201Z,23.18
2019-02-21T08:53:01.104Z,23.02
2019-02-21T08:55:30.681Z,21.85
2019-02-21T08:58:00.059Z,23.22
2019-02-21T09:00:31.469Z,22.30
2019-02-21T09:03:00.500Z,21.97
2019-02-21T09:05:29.876Z,21.48
2019-02-21T09:07:59.215Z,21.57
2019-02-21T09:10:28.594Z,22.82
2019-02-21T09:12:57.958Z,20.55
2019-02-21T09:15:27.317Z,21.87
2019-02-21T09:17:56.946Z,22.40
2019-02-21T09:20:26.652Z,22.32
2019-02-21T09:22:55.965Z,21.85
2019-02-21T09:25:25.544Z,21.12
2019-02-21T09:27:54.999Z,23.67
2019-02-21T09:30:24.286Z,21.87
2019-02-21T09:32:53.593Z,20.45
2019-02-21T09:35:23.214Z,23.05
2019-02-21T09:37:52.542Z,22.62
2019-02-21T09:40:21.874Z,22.22
2019-02-21T09:42:52.931Z,21.45
2019-02-21T09:45:22.270Z,23.15
2019-02-21T09:47:51.637Z,24.32
2019-02-21T09:50:20.972Z,22.73
2019-02-21T09:52:50.273Z,22.30
2019-02-21T09:55:19.619Z,21.93
2019-02-21T09:57:48.992Z,23.15
2019-02-21T10:00:22.526Z,22.95
2019-02-21T10:02:55.593Z,17.77
2019-02-21T10:05:23.223Z,22.37
2019-02-21T10:07:52.536Z,19.77
2019-02-21T10:10:22.617Z,22.80
2019-02-21T10:12:52.008Z,21.95
2019-02-21T10:15:21.405Z,22.80
2019-02-21T10:17:51.044Z,22.37
2019-02-21T10:20:23.723Z,20.25
2019-02-21T10:22:53.008Z,21.75
2019-02-21T10:25:26.398Z,19.98
2019-02-21T10:27:58.814Z,23.52
2019-02-21T10:30:28.261Z,22.48
2019-02-21T10:32:57.574Z,21.40
2019-02-21T10:35:28.471Z,21.50
2019-02-21T10:37:58.095Z,21.68
2019-02-21T10:40:27.398Z,23.67
2019-02-21T10:42:56.826Z,22.10
2019-02-21T10:45:26.203Z,20.82
2019-02-21T10:47:55.506Z,20.65
2019-02-21T10:50:25.216Z,21.15
2019-02-21T10:52:54.814Z,21.48
2019-02-21T10:55:24.417Z,21.60
2019-02-21T10:57:53.833Z,21.07
2019-02-21T11:00:29.866Z,22.62
2019-02-21T11:02:59.528Z,21.95
2019-02-21T11:05:28.837Z,21.97
2019-02-21T11:07:58.176Z,21.65
2019-02-21T11:10:31.162Z,21.87
2019-02-21T11:13:00.473Z,20.60
2019-02-21T11:15:30.032Z,18.65
2019-02-21T11:17:59.704Z,18.62
2019-02-21T11:20:29.028Z,19.60
2019-02-21T11:22:58.344Z,18.80
2019-02-21T11:25:28.016Z,19.87
2019-02-21T11:27:57.362Z,19.50
2019-02-21T11:30:26.765Z,20.02
2019-02-21T11:32:56.136Z,19.12
2019-02-21T11:35:25.460Z,18.85
2019-02-21T11:37:54.810Z,16.95
2019-02-21T11:40:24.516Z,17.20
2019-02-21T11:42:54.140Z,18.25
2019-02-21T11:45:23.453Z,17.67
2019-02-21T11:47:53.130Z,15.28
2019-02-21T11:50:22.749Z,13.60
2019-02-21T11:52:52.150Z,16.00
2019-02-21T11:55:26.602Z,15.00
2019-02-21T11:57:55.938Z,16.35
2019-02-21T12:00:33.296Z,17.07
2019-02-21T12:03:02.619Z,17.87
2019-02-21T12:05:32.408Z,16.02
2019-02-21T12:08:01.792Z,16.30
2019-02-21T12:10:31.405Z,17.30
2019-02-21T12:13:00.722Z,15.53
2019-02-21T12:15:30.209Z,16.87
2019-02-21T12:17:59.602Z,16.75
2019-02-21T12:20:29.230Z,17.40
2019-02-21T12:22:58.601Z,16.50
2019-02-21T12:25:27.958Z,17.87
2019-02-21T12:27:57.621Z,14.98
2019-02-21T12:30:26.990Z,15.18
2019-02-21T12:32:59.044Z,15.65
2019-02-21T12:35:29.952Z,14.98
2019-02-21T12:37:59.507Z,15.55
2019-02-21T12:40:28.836Z,16.50
2019-02-21T12:42:58.158Z,17.73
2019-02-21T12:45:30.078Z,16.60
2019-02-21T12:47:59.039Z,17.67
2019-02-21T12:50:28.427Z,18.07
2019-02-21T12:52:58.154Z,17.75
2019-02-21T12:55:31.446Z,19.98
2019-02-21T12:57:58.544Z,24.57
2019-02-21T13:00:27.905Z,20.25
2019-02-21T13:02:57.227Z,19.52
2019-02-21T13:05:26.578Z,18.52
2019-02-21T13:07:55.971Z,19.20
2019-02-21T13:10:25.751Z,20.17
2019-02-21T13:12:55.080Z,19.40
2019-02-21T13:15:24.460Z,19.20
2019-02-21T13:17:54.053Z,18.42
2019-02-21T13:20:23.393Z,16.82
2019-02-21T13:22:52.799Z,17.75
2019-02-21T13:25:22.137Z,16.57
2019-02-21T13:27:51.457Z,17.32
2019-02-21T13:30:20.930Z,16.20
2019-02-21T13:32:50.314Z,14.40
2019-02-21T13:35:19.637Z,15.35
2019-02-21T13:37:49.276Z,16.67
2019-02-21T13:40:21.226Z,15.05
2019-02-21T13:42:50.358Z,16.17
2019-02-21T13:45:20.050Z,15.95
2019-02-21T13:47:49.439Z,16.07
2019-02-21T13:50:23.706Z,16.25
2019-02-21T13:52:52.103Z,15.90
2019-02-21T13:55:21.429Z,16.32
2019-02-21T13:57:50.830Z,14.87
2019-02-21T14:00:24.819Z,13.85
2019-02-21T14:02:54.156Z,15.72
2019-02-21T14:05:23.505Z,15.53
2019-02-21T14:07:52.887Z,16.42
2019-02-21T14:10:22.205Z,15.65
2019-02-21T14:12:54.200Z,16.17
2019-02-21T14:15:29.453Z,15.85
2019-02-21T14:17:58.830Z,14.70
2019-02-21T14:20:28.463Z,15.05
2019-02-21T14:22:58.071Z,14.80
2019-02-21T14:25:28.313Z,15.48
2019-02-21T14:27:58.436Z,15.00
2019-02-21T14:30:28.139Z,15.85
2019-02-21T14:32:57.443Z,14.28
2019-02-21T14:35:26.817Z,15.08
2019-02-21T14:37:56.211Z,15.85
2019-02-21T14:40:25.542Z,15.75
2019-02-21T14:42:54.856Z,16.00
2019-02-21T14:45:26.483Z,16.50
2019-02-21T14:47:56.205Z,16.85
2019-02-21T14:50:25.520Z,17.45
2019-02-21T14:52:55.026Z,16.60
2019-02-21T14:55:24.352Z,16.15
2019-02-21T14:57:53.684Z,14.28
2019-02-21T15:00:29.059Z,15.98
2019-02-21T15:02:58.387Z,17.05
2019-02-21T15:05:27.700Z,15.70
2019-02-21T15:07:57.144Z,17.35
2019-02-21T15:10:26.478Z,17.80
2019-02-21T15:12:56.073Z,16.80
2019-02-21T15:15:27.331Z,17.95
2019-02-21T15:18:06.879Z,16.62
2019-02-21T15:20:36.194Z,17.82
2019-02-21T15:22:59.334Z,16.75
2019-02-21T15:25:28.907Z,15.15
2019-02-21T15:27:58.519Z,18.52
2019-02-21T15:30:28.434Z,17.40
2019-02-21T15:32:57.757Z,17.98
2019-02-21T15:35:27.080Z,17.23
2019-02-21T15:37:56.753Z,16.15
2019-02-21T15:40:26.073Z,16.07
2019-02-21T15:42:55.441Z,17.85
2019-02-21T15:45:28.691Z,18.07
2019-02-21T15:47:58.397Z,17.65
2019-02-21T15:50:27.696Z,16.52
2019-02-21T15:52:57.819Z,18.50
2019-02-21T15:55:27.193Z,16.97
2019-02-21T15:58:03.844Z,18.50
2019-02-21T16:00:27.666Z,17.15
2019-02-21T16:02:56.985Z,16.73
2019-02-21T16:05:26.409Z,18.40
2019-02-21T16:07:56.174Z,16.75
2019-02-21T16:10:29.958Z,18.17
2019-02-21T16:12:59.623Z,19.25
2019-02-21T16:15:29.436Z,19.57
2019-02-21T16:17:58.767Z,19.07
2019-02-21T16:20:28.115Z,19.55
2019-02-21T16:22:57.499Z,18.50
2019-02-21T16:25:32.192Z,19.35
2019-02-21T16:28:01.524Z,19.20
2019-02-21T16:30:30.905Z,18.05
2019-02-21T16:33:00.266Z,18.02
2019-02-21T16:35:29.879Z,18.57
2019-02-21T16:38:02.181Z,18.30
2019-02-21T16:40:31.221Z,19.27
2019-02-21T16:43:00.531Z,20.30
2019-02-21T16:45:42.434Z,19.02
2019-02-21T16:48:00.995Z,19.70
2019-02-21T16:50:30.499Z,20.62
2019-02-21T16:52:59.869Z,21.10
2019-02-21T16:55:29.251Z,20.55
2019-02-21T16:57:58.581Z,19.55
2019-02-21T17:00:38.922Z,20.85
2019-02-21T17:02:59.378Z,20.10
2019-02-21T17:05:28.769Z,20.37
2019-02-21T17:07:58.171Z,21.45
2019-02-21T17:10:27.529Z,19.10
2019-02-21T17:12:56.869Z,20.62
2019-02-21T17:15:26.241Z,19.48
2019-02-21T17:17:55.563Z,20.97
2019-02-21T17:20:25.717Z,19.25
2019-02-21T17:22:55.144Z,19.85
2019-02-21T17:25:24.470Z,20.52
2019-02-21T17:27:53.783Z,20.43
2019-02-21T17:30:23.662Z,20.02
2019-02-21T17:32:52.975Z,19.60
2019-02-21T17:35:22.310Z,20.50
2019-02-21T17:37:52.020Z,19.90
2019-02-21T17:40:26.360Z,20.82
2019-02-21T17:42:55.722Z,20.45
2019-02-21T17:45:25.442Z,20.95
2019-02-21T17:47:54.765Z,20.57
2019-02-21T17:50:24.349Z,21.10
2019-02-21T17:52:53.730Z,21.10
2019-02-21T17:55:23.057Z,21.97
2019-02-21T17:57:52.370Z,22.27
2019-02-21T18:00:37.867Z,22.02
2019-02-21T18:03:07.170Z,23.85
2019-02-21T18:05:36.488Z,23.15
2019-02-21T18:08:06.130Z,22.75
2019-02-21T18:10:35.447Z,23.27
2019-02-21T18:13:04.834Z,22.80
2019-02-21T18:15:34.456Z,24.07
2019-02-21T18:18:03.883Z,23.38
2019-02-21T18:20:33.473Z,22.60
2019-02-21T18:23:02.853Z,23.65
2019-02-21T18:25:46.105Z,24.20
2019-02-21T18:28:15.512Z,23.25
2019-02-21T18:30:45.149Z,22.15
2019-02-21T18:33:14.421Z,23.20
2019-02-21T18:35:43.918Z,23.27
2019-02-21T18:38:13.273Z,22.20
2019-02-21T18:40:42.603Z,23.35
2019-02-21T18:43:12.001Z,22.90
2019-02-21T18:45:41.381Z,22.52
2019-02-21T18:48:10.729Z,24.07
2019-02-21T18:50:40.101Z,32.23
2019-02-21T18:53:09.421Z,26.33
2019-02-21T18:55:38.745Z,24.32
2019-02-21T18:58:08.449Z,23.27
2019-02-21T19:00:37.818Z,22.95
2019-02-21T19:03:07.248Z,24.00
2019-02-21T19:05:36.950Z,24.52
2019-02-21T19:08:06.350Z,24.80
2019-02-21T19:10:35.831Z,22.62
2019-02-21T19:13:07.634Z,23.42
2019-02-21T19:15:36.484Z,22.98
2019-02-21T19:18:08.994Z,25.57
2019-02-21T19:20:38.397Z,23.77
2019-02-21T19:23:07.708Z,25.00
2019-02-21T19:25:37.105Z,28.38
2019-02-21T19:28:06.508Z,26.73
2019-02-21T19:30:52.500Z,24.77
2019-02-21T19:33:24.762Z,22.82
2019-02-21T19:35:54.477Z,22.85
2019-02-21T19:38:23.800Z,22.80
2019-02-21T19:40:53.177Z,21.70
2019-02-21T19:43:22.765Z,21.85
2019-02-21T19:45:52.365Z,21.90
2019-02-21T19:48:21.803Z,22.70
2019-02-21T19:50:51.116Z,21.55
2019-02-21T19:53:20.775Z,22.50
2019-02-21T19:55:50.136Z,23.80
2019-02-21T19:58:19.447Z,23.42
2019-02-21T20:00:49.212Z,23.38
2019-02-21T20:03:18.681Z,22.42
2019-02-21T20:05:48.418Z,21.97
2019-02-21T20:08:21.499Z,20.60
2019-02-21T20:10:48.825Z,21.23
2019-02-21T20:13:18.247Z,20.20
2019-02-21T20:15:47.595Z,20.75
2019-02-21T20:18:16.968Z,21.55
2019-02-21T20:20:46.291Z,19.67
2019-02-21T20:23:15.976Z,20.32
2019-02-21T20:25:45.383Z,19.52
2019-02-21T20:28:14.736Z,19.57
2019-02-21T20:30:44.089Z,19.20
2019-02-21T20:33:13.597Z,18.95
2019-02-21T20:35:42.964Z,19.95
2019-02-21T20:38:12.286Z,19.67
2019-02-21T20:40:41.818Z,20.17
2019-02-21T20:43:11.225Z,19.90
2019-02-21T20:45:51.893Z,18.05
2019-02-21T20:48:12.112Z,18.77
2019-02-21T20:50:41.468Z,18.48
2019-02-21T20:53:10.795Z,18.60
2019-02-21T20:55:43.659Z,17.75
2019-02-21T20:58:11.819Z,19.30
2019-02-21T21:00:42.046Z,18.35
2019-02-21T21:03:11.414Z,18.02
2019-02-21T21:05:40.723Z,17.65
2019-02-21T21:08:10.458Z,18.52
2019-02-21T21:10:39.857Z,17.65
2019-02-21T21:13:09.171Z,18.77
2019-02-21T21:15:38.493Z,18.52
2019-02-21T21:18:07.863Z,18.73
2019-02-21T21:20:37.176Z,19.05
2019-02-21T21:23:06.487Z,18.00
2019-02-21T21:25:35.944Z,17.73
2019-02-21T21:28:05.399Z,17.85
2019-02-21T21:30:34.717Z,18.65
2019-02-21T21:33:04.085Z,18.85
2019-02-21T21:35:33.415Z,18.67
2019-02-21T21:38:03.057Z,19.17
2019-02-21T21:40:32.537Z,18.48
2019-02-21T21:43:01.863Z,19.65
2019-02-21T21:45:31.171Z,20.15
2019-02-21T21:48:00.562Z,19.12
2019-02-21T21:50:30.160Z,19.00
2019-02-21T21:52:59.474Z,19.82
2019-02-21T21:55:29.168Z,18.57
2019-02-21T21:57:58.489Z,19.57
2019-02-21T22:00:27.867Z,19.50
2019-02-21T22:02:57.476Z,19.00
2019-02-21T22:05:27.099Z,18.25
2019-02-21T22:07:56.703Z,19.82
2019-02-21T22:10:26.302Z,17.95
2019-02-21T22:12:55.629Z,19.05
2019-02-21T22:15:25.612Z,18.75
2019-02-21T22:17:55.235Z,19.12
2019-02-21T22:20:24.850Z,19.12
2019-02-21T22:22:54.223Z,18.25
2019-02-21T22:25:23.933Z,18.92
2019-02-21T22:27:53.179Z,19.42
2019-02-21T22:30:22.563Z,19.67
2019-02-21T22:32:52.239Z,19.15
2019-02-21T22:35:21.538Z,19.57
2019-02-21T22:37:50.951Z,20.23
2019-02-21T22:40:21.707Z,20.17
2019-02-21T22:42:51.335Z,20.12
2019-02-21T22:45:20.664Z,20.27
2019-02-21T22:47:50.321Z,20.48
2019-02-21T22:50:20.799Z,19.80
2019-02-21T22:52:50.112Z,19.87
2019-02-21T22:55:19.467Z,19.30
2019-02-21T22:57:48.768Z,19.65
2019-02-21T23:00:40.053Z,18.45
2019-02-21T23:03:12.053Z,20.08
2019-02-21T23:06:03.448Z,20.32
2019-02-21T23:08:44.005Z,21.17
2019-02-21T23:11:13.962Z,20.97
2019-02-21T23:13:43.657Z,20.30
2019-02-21T23:16:13.038Z,20.85
2019-02-21T23:18:42.433Z,20.62
2019-02-21T23:21:12.055Z,21.77
2019-02-21T23:23:41.369Z,21.57
2019-02-21T23:26:11.720Z,22.65
2019-02-21T23:28:41.408Z,21.20
2019-02-21T23:31:10.785Z,20.55
2019-02-21T23:33:58.176Z,21.35
2019-02-21T23:36:27.482Z,21.82
2019-02-21T23:38:56.791Z,21.27
2019-02-21T23:41:26.150Z,22.07
2019-02-21T23:43:55.496Z,20.57
2019-02-21T23:46:24.901Z,21.90
2019-02-21T23:48:54.277Z,21.73
2019-02-21T23:51:23.587Z,21.82
2019-02-21T23:54:02.729Z,22.80
2019-02-21T23:56:24.000Z,23.18
2019-02-21T23:58:53.316Z,23.30
